LHA280 MSLP-MMMX
Flight info
| Callsign | LHA280 |
|---|---|
| Flight time | 1h 53m |
| Altitude | 40000 |
| Route | DUNEL UA317 TAP J13 IZT UL423 XOSVO UT157 LARLO |
| Aircraft | A339/H-SDE1E2FGHIJ1J4RWXYZ/S |
Departure
| Time | 2026-04-20 17:23 |
|---|---|
| Airport | El Salvador International Airport Saint Óscar Arnulfo Romero y Galdámez (MSLP) |
Arrival
| Time | 2026-04-20 19:16 |
|---|---|
| Airport | Mexico City Benito Juárez International Airport (MMMX) |
| Time | Latitude | Longitude | Altitude | Speed | Heading |
|---|---|---|---|---|---|
| 2026-04-20 17:05 | 13.44554 | -89.05300 | 133 ft | 0 kts | 340° |
| 2026-04-20 17:13 | 13.44553 | -89.05299 | 132 ft | 0 kts | 340° |
| 2026-04-20 17:13 | 13.44540 | -89.05295 | 132 ft | 2 kts | 340° |
| 2026-04-20 17:14 | 13.44526 | -89.05290 | 131 ft | 2 kts | 340° |
| 2026-04-20 17:14 | 13.44512 | -89.05284 | 130 ft | 2 kts | 340° |
| 2026-04-20 17:14 | 13.44500 | -89.05280 | 129 ft | 0 kts | 340° |
| 2026-04-20 17:14 | 13.44489 | -89.05274 | 129 ft | 2 kts | 308° |
| 2026-04-20 17:15 | 13.44484 | -89.05260 | 128 ft | 2 kts | 263° |
| 2026-04-20 17:15 | 13.44485 | -89.05254 | 128 ft | 1 kts | 248° |
| 2026-04-20 17:15 | 13.44487 | -89.05250 | 128 ft | 0 kts | 250° |
| 2026-04-20 17:17 | 13.44485 | -89.05255 | 128 ft | 2 kts | 250° |
| 2026-04-20 17:17 | 13.44474 | -89.05287 | 128 ft | 7 kts | 250° |
| 2026-04-20 17:17 | 13.44449 | -89.05350 | 128 ft | 11 kts | 239° |
| 2026-04-20 17:18 | 13.44370 | -89.05396 | 126 ft | 13 kts | 207° |
| 2026-04-20 17:18 | 13.44324 | -89.05466 | 126 ft | 13 kts | 250° |
| 2026-04-20 17:18 | 13.44286 | -89.05570 | 124 ft | 16 kts | 250° |
| 2026-04-20 17:18 | 13.44246 | -89.05685 | 124 ft | 17 kts | 251° |
| 2026-04-20 17:19 | 13.44205 | -89.05804 | 122 ft | 18 kts | 251° |
| 2026-04-20 17:19 | 13.44153 | -89.05927 | 120 ft | 19 kts | 242° |
| 2026-04-20 17:19 | 13.44102 | -89.06055 | 119 ft | 19 kts | 255° |
| 2026-04-20 17:19 | 13.44066 | -89.06190 | 117 ft | 19 kts | 252° |
| 2026-04-20 17:20 | 13.44020 | -89.06326 | 115 ft | 20 kts | 250° |
| 2026-04-20 17:20 | 13.43971 | -89.06465 | 113 ft | 21 kts | 250° |
| 2026-04-20 17:20 | 13.43918 | -89.06612 | 109 ft | 22 kts | 250° |
| 2026-04-20 17:20 | 13.43862 | -89.06766 | 106 ft | 23 kts | 249° |
| 2026-04-20 17:21 | 13.43823 | -89.06876 | 103 ft | 13 kts | 250° |
| 2026-04-20 17:21 | 13.43787 | -89.06967 | 101 ft | 9 kts | 228° |
| 2026-04-20 17:21 | 13.43714 | -89.06988 | 99 ft | 12 kts | 172° |
| 2026-04-20 17:21 | 13.43634 | -89.06943 | 98 ft | 13 kts | 122° |
| 2026-04-20 17:22 | 13.43632 | -89.06887 | 100 ft | 0 kts | 70° |
| 2026-04-20 17:22 | 13.43634 | -89.06881 | 100 ft | 8 kts | 70° |
| 2026-04-20 17:23 | 13.43740 | -89.06588 | 106 ft | 78 kts | 68° |
| 2026-04-20 17:23 | 13.43996 | -89.05862 | 116 ft | 136 kts | 68° |
| 2026-04-20 17:23 | 13.44376 | -89.04775 | 205 ft | 177 kts | 71° |
| 2026-04-20 17:23 | 13.44768 | -89.03571 | 705 ft | 182 kts | 73° |
| 2026-04-20 17:24 | 13.45150 | -89.02380 | 1447 ft | 172 kts | 69° |
| 2026-04-20 17:24 | 13.45567 | -89.01280 | 2105 ft | 164 kts | 68° |
| 2026-04-20 17:24 | 13.45994 | -89.00153 | 2389 ft | 177 kts | 68° |
| 2026-04-20 17:24 | 13.46454 | -88.98913 | 2672 ft | 193 kts | 68° |
| 2026-04-20 17:25 | 13.46936 | -88.97589 | 2950 ft | 208 kts | 68° |
| 2026-04-20 17:25 | 13.47462 | -88.96135 | 3241 ft | 226 kts | 68° |
| 2026-04-20 17:25 | 13.48029 | -88.94552 | 3563 ft | 244 kts | 68° |
| 2026-04-20 17:25 | 13.48632 | -88.92864 | 3940 ft | 260 kts | 69° |
| 2026-04-20 17:26 | 13.49256 | -88.91108 | 4559 ft | 266 kts | 69° |
| 2026-04-20 17:26 | 13.49805 | -88.89302 | 5300 ft | 268 kts | 75° |
| 2026-04-20 17:26 | 13.50230 | -88.87425 | 6060 ft | 269 kts | 76° |
| 2026-04-20 17:26 | 13.50645 | -88.85561 | 6798 ft | 270 kts | 72° |
| 2026-04-20 17:27 | 13.51342 | -88.83785 | 7543 ft | 271 kts | 60° |
| 2026-04-20 17:27 | 13.52391 | -88.82188 | 8276 ft | 272 kts | 49° |
| 2026-04-20 17:27 | 13.53742 | -88.80838 | 9024 ft | 275 kts | 38° |
| 2026-04-20 17:27 | 13.55342 | -88.79794 | 9742 ft | 278 kts | 27° |
| 2026-04-20 17:28 | 13.57173 | -88.79092 | 10425 ft | 283 kts | 16° |
| 2026-04-20 17:28 | 13.59147 | -88.78788 | 11107 ft | 290 kts | 4° |
| 2026-04-20 17:28 | 13.61179 | -88.78933 | 11777 ft | 297 kts | 352° |
| 2026-04-20 17:28 | 13.63174 | -88.79544 | 12421 ft | 305 kts | 339° |
| 2026-04-20 17:29 | 13.65028 | -88.80624 | 13046 ft | 313 kts | 326° |
| 2026-04-20 17:29 | 13.66635 | -88.82164 | 13693 ft | 320 kts | 311° |
| 2026-04-20 17:29 | 13.67856 | -88.84083 | 14317 ft | 327 kts | 297° |
| 2026-04-20 17:29 | 13.68601 | -88.86307 | 14915 ft | 332 kts | 282° |
| 2026-04-20 17:30 | 13.68842 | -88.88674 | 15482 ft | 338 kts | 273° |
| 2026-04-20 17:30 | 13.68932 | -88.91148 | 15784 ft | 353 kts | 272° |
| 2026-04-20 17:30 | 13.69002 | -88.93716 | 16053 ft | 369 kts | 272° |
| 2026-04-20 17:30 | 13.69083 | -88.96390 | 16420 ft | 380 kts | 272° |
| 2026-04-20 17:31 | 13.69176 | -88.99106 | 16967 ft | 384 kts | 272° |
| 2026-04-20 17:31 | 13.69277 | -89.01861 | 17574 ft | 386 kts | 272° |
| 2026-04-20 17:31 | 13.69382 | -89.04607 | 18166 ft | 389 kts | 272° |
| 2026-04-20 17:31 | 13.69491 | -89.07398 | 18761 ft | 392 kts | 272° |
| 2026-04-20 17:32 | 13.69601 | -89.10216 | 19350 ft | 394 kts | 272° |
| 2026-04-20 17:32 | 13.69712 | -89.12999 | 19901 ft | 397 kts | 272° |
| 2026-04-20 17:32 | 13.69826 | -89.15859 | 20447 ft | 400 kts | 272° |
| 2026-04-20 17:32 | 13.69941 | -89.18736 | 20998 ft | 402 kts | 272° |
| 2026-04-20 17:33 | 13.70055 | -89.21600 | 21532 ft | 404 kts | 272° |
| 2026-04-20 17:33 | 13.70168 | -89.24485 | 22056 ft | 407 kts | 272° |
| 2026-04-20 17:33 | 13.70282 | -89.27403 | 22570 ft | 409 kts | 272° |
| 2026-04-20 17:33 | 13.70395 | -89.30315 | 23039 ft | 413 kts | 272° |
| 2026-04-20 17:34 | 13.70510 | -89.33289 | 23519 ft | 416 kts | 272° |
| 2026-04-20 17:34 | 13.70625 | -89.36274 | 23990 ft | 419 kts | 272° |
| 2026-04-20 17:34 | 13.70741 | -89.39278 | 24467 ft | 422 kts | 272° |
| 2026-04-20 17:34 | 13.70858 | -89.42321 | 24933 ft | 425 kts | 272° |
| 2026-04-20 17:35 | 13.70974 | -89.45354 | 25386 ft | 428 kts | 272° |
| 2026-04-20 17:35 | 13.71092 | -89.48435 | 25836 ft | 431 kts | 272° |
| 2026-04-20 17:35 | 13.71209 | -89.51488 | 26261 ft | 434 kts | 272° |
| 2026-04-20 17:35 | 13.71323 | -89.54620 | 26704 ft | 437 kts | 271° |
| 2026-04-20 17:36 | 13.71420 | -89.57753 | 27139 ft | 440 kts | 271° |
| 2026-04-20 17:36 | 13.71512 | -89.60870 | 27563 ft | 442 kts | 271° |
| 2026-04-20 17:36 | 13.71604 | -89.64024 | 27989 ft | 444 kts | 271° |
| 2026-04-20 17:36 | 13.71697 | -89.67230 | 28391 ft | 447 kts | 271° |
| 2026-04-20 17:37 | 13.71789 | -89.70406 | 28779 ft | 450 kts | 271° |
| 2026-04-20 17:37 | 13.71884 | -89.73655 | 29183 ft | 453 kts | 271° |
| 2026-04-20 17:37 | 13.71977 | -89.76866 | 29603 ft | 454 kts | 271° |
| 2026-04-20 17:37 | 13.72071 | -89.80129 | 30030 ft | 456 kts | 271° |
| 2026-04-20 17:38 | 13.72165 | -89.83388 | 30440 ft | 458 kts | 271° |
| 2026-04-20 17:38 | 13.72258 | -89.86659 | 30851 ft | 459 kts | 271° |
| 2026-04-20 17:38 | 13.72350 | -89.89892 | 31261 ft | 460 kts | 271° |
| 2026-04-20 17:38 | 13.72444 | -89.93207 | 31662 ft | 462 kts | 271° |
| 2026-04-20 17:39 | 13.72537 | -89.96497 | 32046 ft | 464 kts | 271° |
| 2026-04-20 17:39 | 13.72630 | -89.99797 | 32404 ft | 466 kts | 271° |
| 2026-04-20 17:39 | 13.72722 | -90.03130 | 32759 ft | 468 kts | 271° |
| 2026-04-20 17:39 | 13.72890 | -90.06468 | 33172 ft | 469 kts | 274° |
| 2026-04-20 17:40 | 13.73233 | -90.09811 | 33660 ft | 469 kts | 277° |
| 2026-04-20 17:40 | 13.73746 | -90.13094 | 34246 ft | 466 kts | 280° |
| 2026-04-20 17:40 | 13.74425 | -90.16316 | 34832 ft | 463 kts | 283° |
| 2026-04-20 17:40 | 13.75270 | -90.19504 | 35360 ft | 461 kts | 286° |
| 2026-04-20 17:41 | 13.76174 | -90.22642 | 35835 ft | 460 kts | 286° |
| 2026-04-20 17:41 | 13.77096 | -90.25809 | 36257 ft | 460 kts | 286° |
| 2026-04-20 17:41 | 13.78005 | -90.28938 | 36641 ft | 459 kts | 286° |
| 2026-04-20 17:41 | 13.78912 | -90.32070 | 37012 ft | 459 kts | 286° |
| 2026-04-20 17:42 | 13.79815 | -90.35212 | 37376 ft | 459 kts | 286° |
| 2026-04-20 17:42 | 13.80705 | -90.38334 | 37739 ft | 458 kts | 286° |
| 2026-04-20 17:42 | 13.81606 | -90.41502 | 38084 ft | 458 kts | 287° |
| 2026-04-20 17:42 | 13.82492 | -90.44623 | 38405 ft | 458 kts | 287° |
| 2026-04-20 17:43 | 13.83385 | -90.47770 | 38674 ft | 459 kts | 287° |
| 2026-04-20 17:43 | 13.84280 | -90.50924 | 38922 ft | 460 kts | 287° |
| 2026-04-20 17:43 | 13.85179 | -90.54087 | 39187 ft | 461 kts | 287° |
| 2026-04-20 17:43 | 13.86068 | -90.57220 | 39458 ft | 461 kts | 287° |
| 2026-04-20 17:44 | 13.86960 | -90.60364 | 39742 ft | 461 kts | 286° |
| 2026-04-20 17:44 | 13.87859 | -90.63543 | 39917 ft | 463 kts | 286° |
| 2026-04-20 17:44 | 13.88752 | -90.66704 | 39918 ft | 463 kts | 286° |
| 2026-04-20 17:45 | 13.90549 | -90.73073 | 39923 ft | 463 kts | 286° |
| 2026-04-20 17:45 | 13.92443 | -90.79419 | 39918 ft | 464 kts | 290° |
| 2026-04-20 17:46 | 13.94890 | -90.85513 | 39914 ft | 464 kts | 296° |
| 2026-04-20 17:46 | 13.97939 | -90.91362 | 39922 ft | 464 kts | 300° |
| 2026-04-20 17:47 | 14.01132 | -90.97102 | 39916 ft | 463 kts | 300° |
| 2026-04-20 17:47 | 14.04337 | -91.02870 | 39925 ft | 462 kts | 300° |
| 2026-04-20 17:48 | 14.07511 | -91.08599 | 39922 ft | 462 kts | 300° |
| 2026-04-20 17:48 | 14.10690 | -91.14347 | 39929 ft | 462 kts | 300° |
| 2026-04-20 17:49 | 14.13860 | -91.20085 | 39938 ft | 463 kts | 300° |
| 2026-04-20 17:49 | 14.17036 | -91.25838 | 39957 ft | 464 kts | 300° |
| 2026-04-20 17:50 | 14.20236 | -91.31622 | 39977 ft | 464 kts | 300° |
| 2026-04-20 17:50 | 14.23468 | -91.37384 | 39963 ft | 465 kts | 300° |
| 2026-04-20 17:51 | 14.26690 | -91.43131 | 39979 ft | 463 kts | 300° |
| 2026-04-20 17:51 | 14.29894 | -91.48866 | 39994 ft | 463 kts | 299° |
| 2026-04-20 17:52 | 14.33095 | -91.54611 | 39999 ft | 464 kts | 299° |
| 2026-04-20 17:52 | 14.36312 | -91.60389 | 40010 ft | 465 kts | 299° |
| 2026-04-20 17:53 | 14.39542 | -91.66193 | 40003 ft | 467 kts | 299° |
| 2026-04-20 17:53 | 14.42756 | -91.71969 | 40001 ft | 467 kts | 299° |
| 2026-04-20 17:54 | 14.45989 | -91.77781 | 40012 ft | 466 kts | 299° |
| 2026-04-20 17:54 | 14.49200 | -91.83562 | 40010 ft | 466 kts | 299° |
| 2026-04-20 17:55 | 14.52417 | -91.89360 | 40014 ft | 466 kts | 299° |
| 2026-04-20 17:55 | 14.55617 | -91.95133 | 40026 ft | 466 kts | 299° |
| 2026-04-20 17:56 | 14.58850 | -92.00969 | 40023 ft | 466 kts | 299° |
| 2026-04-20 17:56 | 14.62050 | -92.06753 | 40018 ft | 466 kts | 299° |
| 2026-04-20 17:57 | 14.65253 | -92.12543 | 40021 ft | 466 kts | 299° |
| 2026-04-20 17:57 | 14.68492 | -92.18362 | 40012 ft | 466 kts | 299° |
| 2026-04-20 17:58 | 14.71722 | -92.24122 | 40012 ft | 466 kts | 299° |
| 2026-04-20 17:58 | 14.74964 | -92.29923 | 40014 ft | 466 kts | 299° |
| 2026-04-20 17:59 | 14.78182 | -92.35690 | 40003 ft | 466 kts | 299° |
| 2026-04-20 17:59 | 14.81619 | -92.41395 | 40009 ft | 466 kts | 302° |
| 2026-04-20 18:00 | 14.85126 | -92.46983 | 40004 ft | 466 kts | 302° |
| 2026-04-20 18:00 | 14.88644 | -92.52600 | 39999 ft | 466 kts | 302° |
| 2026-04-20 18:01 | 14.92166 | -92.58237 | 39974 ft | 466 kts | 301° |
| 2026-04-20 18:01 | 14.95664 | -92.63850 | 39975 ft | 466 kts | 301° |
| 2026-04-20 18:02 | 14.99167 | -92.69478 | 39971 ft | 467 kts | 301° |
| 2026-04-20 18:02 | 15.02670 | -92.75098 | 39961 ft | 467 kts | 301° |
| 2026-04-20 18:03 | 15.06214 | -92.80770 | 39963 ft | 467 kts | 301° |
| 2026-04-20 18:03 | 15.09713 | -92.86384 | 39963 ft | 467 kts | 301° |
| 2026-04-20 18:04 | 15.13215 | -92.92019 | 39973 ft | 467 kts | 301° |
| 2026-04-20 18:04 | 15.16727 | -92.97675 | 39967 ft | 467 kts | 301° |
| 2026-04-20 18:05 | 15.22007 | -93.06185 | 39955 ft | 468 kts | 301° |
| 2026-04-20 18:05 | 15.25501 | -93.11821 | 39956 ft | 467 kts | 301° |
| 2026-04-20 18:06 | 15.29015 | -93.17493 | 39955 ft | 468 kts | 301° |
| 2026-04-20 18:06 | 15.32517 | -93.23151 | 39954 ft | 467 kts | 301° |
| 2026-04-20 18:07 | 15.36014 | -93.28807 | 39943 ft | 467 kts | 301° |
| 2026-04-20 18:07 | 15.39512 | -93.34463 | 39945 ft | 468 kts | 301° |
| 2026-04-20 18:08 | 15.43005 | -93.40119 | 39941 ft | 468 kts | 301° |
| 2026-04-20 18:08 | 15.46500 | -93.45785 | 39946 ft | 467 kts | 301° |
| 2026-04-20 18:09 | 15.50011 | -93.51479 | 39947 ft | 467 kts | 301° |
| 2026-04-20 18:09 | 15.53492 | -93.57127 | 39942 ft | 466 kts | 301° |
| 2026-04-20 18:10 | 15.56981 | -93.62793 | 39941 ft | 466 kts | 301° |
| 2026-04-20 18:10 | 15.60452 | -93.68434 | 39932 ft | 466 kts | 300° |
| 2026-04-20 18:11 | 15.63934 | -93.74100 | 39927 ft | 465 kts | 300° |
| 2026-04-20 18:11 | 15.67401 | -93.79746 | 39927 ft | 466 kts | 300° |
| 2026-04-20 18:12 | 15.70889 | -93.85432 | 39919 ft | 466 kts | 300° |
| 2026-04-20 18:12 | 15.74360 | -93.91097 | 39913 ft | 465 kts | 300° |
| 2026-04-20 18:13 | 15.77822 | -93.96753 | 39909 ft | 465 kts | 300° |
| 2026-04-20 18:13 | 15.81290 | -94.02409 | 39908 ft | 465 kts | 300° |
| 2026-04-20 18:14 | 15.84742 | -94.08031 | 39910 ft | 465 kts | 300° |
| 2026-04-20 18:14 | 15.88202 | -94.13678 | 39906 ft | 464 kts | 300° |
| 2026-04-20 18:15 | 15.91659 | -94.19331 | 39909 ft | 464 kts | 300° |
| 2026-04-20 18:15 | 15.95129 | -94.25017 | 39920 ft | 465 kts | 300° |
| 2026-04-20 18:16 | 15.98575 | -94.30663 | 39920 ft | 465 kts | 300° |
| 2026-04-20 18:16 | 16.02026 | -94.36320 | 39929 ft | 465 kts | 300° |
| 2026-04-20 18:17 | 16.05491 | -94.42005 | 39935 ft | 465 kts | 300° |
| 2026-04-20 18:17 | 16.08941 | -94.47675 | 39938 ft | 464 kts | 300° |
| 2026-04-20 18:18 | 16.12392 | -94.53346 | 39950 ft | 464 kts | 300° |
| 2026-04-20 18:18 | 16.15832 | -94.59004 | 39943 ft | 464 kts | 300° |
| 2026-04-20 18:19 | 16.19256 | -94.64645 | 39969 ft | 463 kts | 300° |
| 2026-04-20 18:19 | 16.22692 | -94.70308 | 39978 ft | 463 kts | 300° |
| 2026-04-20 18:20 | 16.26131 | -94.75981 | 39979 ft | 464 kts | 300° |
| 2026-04-20 18:20 | 16.29563 | -94.81644 | 39997 ft | 463 kts | 300° |
| 2026-04-20 18:21 | 16.32992 | -94.87309 | 40000 ft | 463 kts | 300° |
| 2026-04-20 18:21 | 16.36421 | -94.92980 | 40001 ft | 463 kts | 300° |
| 2026-04-20 18:22 | 16.39860 | -94.98673 | 40008 ft | 463 kts | 300° |
| 2026-04-20 18:22 | 16.43267 | -95.04322 | 40019 ft | 463 kts | 300° |
| 2026-04-20 18:23 | 16.46672 | -95.10019 | 40019 ft | 462 kts | 298° |
| 2026-04-20 18:23 | 16.49862 | -95.15794 | 40038 ft | 461 kts | 297° |
| 2026-04-20 18:24 | 16.53021 | -95.21564 | 40046 ft | 461 kts | 297° |
| 2026-04-20 18:24 | 16.56189 | -95.27357 | 40070 ft | 461 kts | 297° |
| 2026-04-20 18:25 | 16.59357 | -95.33149 | 40095 ft | 460 kts | 297° |
| 2026-04-20 18:25 | 16.62540 | -95.38972 | 40118 ft | 460 kts | 297° |
| 2026-04-20 18:26 | 16.65693 | -95.44750 | 40158 ft | 460 kts | 297° |
| 2026-04-20 18:26 | 16.68854 | -95.50547 | 40196 ft | 460 kts | 297° |
| 2026-04-20 18:27 | 16.71992 | -95.56308 | 40228 ft | 460 kts | 297° |
| 2026-04-20 18:27 | 16.75157 | -95.62122 | 40246 ft | 459 kts | 297° |
| 2026-04-20 18:28 | 16.78274 | -95.67856 | 40246 ft | 457 kts | 297° |
| 2026-04-20 18:28 | 16.81411 | -95.73634 | 40252 ft | 458 kts | 297° |
| 2026-04-20 18:29 | 16.84552 | -95.79418 | 40261 ft | 458 kts | 297° |
| 2026-04-20 18:29 | 16.87694 | -95.85192 | 40292 ft | 458 kts | 297° |
| 2026-04-20 18:30 | 16.90837 | -95.90980 | 40305 ft | 458 kts | 297° |
| 2026-04-20 18:30 | 16.93967 | -95.96758 | 40335 ft | 457 kts | 297° |
| 2026-04-20 18:31 | 16.97067 | -96.02490 | 40346 ft | 457 kts | 297° |
| 2026-04-20 18:31 | 17.00193 | -96.08273 | 40366 ft | 456 kts | 297° |
| 2026-04-20 18:32 | 17.03309 | -96.14043 | 40381 ft | 455 kts | 297° |
| 2026-04-20 18:32 | 17.06398 | -96.19769 | 40382 ft | 456 kts | 297° |
| 2026-04-20 18:33 | 17.09521 | -96.25565 | 40390 ft | 457 kts | 297° |
| 2026-04-20 18:33 | 17.12630 | -96.31339 | 40378 ft | 457 kts | 297° |
| 2026-04-20 18:34 | 17.15729 | -96.37100 | 40379 ft | 457 kts | 297° |
| 2026-04-20 18:34 | 17.18856 | -96.42899 | 40385 ft | 456 kts | 297° |
| 2026-04-20 18:35 | 17.21955 | -96.48650 | 40403 ft | 456 kts | 297° |
| 2026-04-20 18:35 | 17.25062 | -96.54427 | 40419 ft | 456 kts | 297° |
| 2026-04-20 18:36 | 17.28153 | -96.60182 | 40428 ft | 456 kts | 297° |
| 2026-04-20 18:36 | 17.31253 | -96.65961 | 40423 ft | 456 kts | 297° |
| 2026-04-20 18:37 | 17.34360 | -96.71762 | 40423 ft | 456 kts | 297° |
| 2026-04-20 18:37 | 17.37448 | -96.77529 | 40429 ft | 456 kts | 297° |
| 2026-04-20 18:38 | 17.40548 | -96.83325 | 40428 ft | 456 kts | 297° |
| 2026-04-20 18:38 | 17.43646 | -96.89122 | 40430 ft | 456 kts | 297° |
| 2026-04-20 18:39 | 17.46731 | -96.94899 | 40435 ft | 455 kts | 297° |
| 2026-04-20 18:39 | 17.49818 | -97.00691 | 40436 ft | 456 kts | 297° |
| 2026-04-20 18:40 | 17.52888 | -97.06456 | 40415 ft | 456 kts | 297° |
| 2026-04-20 18:40 | 17.55984 | -97.12253 | 40397 ft | 457 kts | 298° |
| 2026-04-20 18:41 | 17.59450 | -97.17813 | 40386 ft | 458 kts | 304° |
| 2026-04-20 18:41 | 17.63478 | -97.22975 | 40386 ft | 460 kts | 310° |
| 2026-04-20 18:42 | 17.67992 | -97.27724 | 40400 ft | 460 kts | 314° |
| 2026-04-20 18:42 | 17.72611 | -97.32373 | 40401 ft | 460 kts | 314° |
| 2026-04-20 18:43 | 17.77218 | -97.37013 | 40394 ft | 459 kts | 314° |
| 2026-04-20 18:43 | 17.81835 | -97.41676 | 40377 ft | 460 kts | 313° |
| 2026-04-20 18:44 | 17.86427 | -97.46319 | 40360 ft | 459 kts | 313° |
| 2026-04-20 18:44 | 17.91006 | -97.50951 | 40359 ft | 460 kts | 313° |
| 2026-04-20 18:45 | 17.95604 | -97.55609 | 40350 ft | 459 kts | 313° |
| 2026-04-20 18:45 | 18.00210 | -97.60278 | 40344 ft | 459 kts | 313° |
| 2026-04-20 18:46 | 18.04797 | -97.64932 | 40267 ft | 455 kts | 313° |
| 2026-04-20 18:46 | 18.07061 | -97.67230 | 39852 ft | 452 kts | 313° |
| 2026-04-20 18:46 | 18.09311 | -97.69514 | 39241 ft | 450 kts | 313° |
| 2026-04-20 18:47 | 18.11537 | -97.71777 | 38597 ft | 450 kts | 313° |
| 2026-04-20 18:47 | 18.13784 | -97.74062 | 37908 ft | 450 kts | 313° |
| 2026-04-20 18:47 | 18.16034 | -97.76353 | 37164 ft | 452 kts | 313° |
| 2026-04-20 18:47 | 18.18314 | -97.78677 | 36408 ft | 454 kts | 313° |
| 2026-04-20 18:48 | 18.20558 | -97.80962 | 35665 ft | 456 kts | 313° |
| 2026-04-20 18:48 | 18.22839 | -97.83282 | 34906 ft | 457 kts | 313° |
| 2026-04-20 18:48 | 18.25117 | -97.85599 | 34133 ft | 459 kts | 313° |
| 2026-04-20 18:48 | 18.27442 | -97.87962 | 33310 ft | 462 kts | 313° |
| 2026-04-20 18:49 | 18.29754 | -97.90313 | 32669 ft | 461 kts | 313° |
| 2026-04-20 18:49 | 18.32017 | -97.92614 | 32248 ft | 456 kts | 313° |
| 2026-04-20 18:49 | 18.34300 | -97.94939 | 31817 ft | 451 kts | 313° |
| 2026-04-20 18:49 | 18.36532 | -97.97214 | 31360 ft | 447 kts | 313° |
| 2026-04-20 18:50 | 18.38764 | -97.99491 | 30898 ft | 444 kts | 313° |
| 2026-04-20 18:50 | 18.40971 | -98.01745 | 30437 ft | 440 kts | 313° |
| 2026-04-20 18:50 | 18.43136 | -98.03956 | 29997 ft | 436 kts | 313° |
| 2026-04-20 18:50 | 18.45296 | -98.06163 | 29555 ft | 432 kts | 313° |
| 2026-04-20 18:51 | 18.47468 | -98.08383 | 29089 ft | 429 kts | 313° |
| 2026-04-20 18:51 | 18.49599 | -98.10562 | 28636 ft | 426 kts | 313° |
| 2026-04-20 18:51 | 18.51691 | -98.12704 | 28194 ft | 423 kts | 313° |
| 2026-04-20 18:51 | 18.53787 | -98.14850 | 27754 ft | 419 kts | 313° |
| 2026-04-20 18:52 | 18.55877 | -98.16990 | 27308 ft | 416 kts | 313° |
| 2026-04-20 18:52 | 18.57946 | -98.19111 | 26855 ft | 414 kts | 314° |
| 2026-04-20 18:52 | 18.60011 | -98.21227 | 26419 ft | 411 kts | 314° |
| 2026-04-20 18:52 | 18.62039 | -98.23305 | 25998 ft | 407 kts | 314° |
| 2026-04-20 18:53 | 18.64065 | -98.25384 | 25574 ft | 404 kts | 314° |
| 2026-04-20 18:53 | 18.66072 | -98.27443 | 25142 ft | 401 kts | 314° |
| 2026-04-20 18:53 | 18.68054 | -98.29476 | 24720 ft | 398 kts | 314° |
| 2026-04-20 18:53 | 18.69984 | -98.31583 | 24291 ft | 394 kts | 307° |
| 2026-04-20 18:54 | 18.71429 | -98.33983 | 23855 ft | 391 kts | 295° |
| 2026-04-20 18:54 | 18.72348 | -98.36656 | 23413 ft | 388 kts | 284° |
| 2026-04-20 18:54 | 18.72890 | -98.39431 | 22984 ft | 385 kts | 281° |
| 2026-04-20 18:54 | 18.73382 | -98.42184 | 22531 ft | 383 kts | 281° |
| 2026-04-20 18:55 | 18.73867 | -98.44923 | 22091 ft | 381 kts | 281° |
| 2026-04-20 18:55 | 18.74363 | -98.47688 | 21632 ft | 380 kts | 281° |
| 2026-04-20 18:55 | 18.74853 | -98.50404 | 21171 ft | 379 kts | 281° |
| 2026-04-20 18:55 | 18.75342 | -98.53101 | 20730 ft | 378 kts | 282° |
| 2026-04-20 18:56 | 18.75834 | -98.55811 | 20297 ft | 376 kts | 282° |
| 2026-04-20 18:56 | 18.76330 | -98.58536 | 19860 ft | 375 kts | 282° |
| 2026-04-20 18:56 | 18.76815 | -98.61204 | 19440 ft | 373 kts | 282° |
| 2026-04-20 18:56 | 18.77304 | -98.63903 | 19017 ft | 372 kts | 282° |
| 2026-04-20 18:57 | 18.77788 | -98.66569 | 18591 ft | 371 kts | 281° |
| 2026-04-20 18:57 | 18.78271 | -98.69224 | 18173 ft | 370 kts | 281° |
| 2026-04-20 18:57 | 18.78748 | -98.71862 | 17759 ft | 369 kts | 281° |
| 2026-04-20 18:57 | 18.79227 | -98.74504 | 17347 ft | 367 kts | 281° |
| 2026-04-20 18:58 | 18.79705 | -98.77150 | 16939 ft | 366 kts | 282° |
| 2026-04-20 18:58 | 18.80180 | -98.79778 | 16560 ft | 364 kts | 282° |
| 2026-04-20 18:58 | 18.80662 | -98.82378 | 16197 ft | 361 kts | 283° |
| 2026-04-20 18:58 | 18.81204 | -98.84969 | 15819 ft | 359 kts | 284° |
| 2026-04-20 18:59 | 18.81755 | -98.87517 | 15443 ft | 357 kts | 284° |
| 2026-04-20 18:59 | 18.82301 | -98.90044 | 15126 ft | 352 kts | 284° |
| 2026-04-20 18:59 | 18.82837 | -98.92546 | 14963 ft | 343 kts | 284° |
| 2026-04-20 18:59 | 18.83348 | -98.94959 | 14811 ft | 335 kts | 284° |
| 2026-04-20 19:00 | 18.83845 | -98.97308 | 14664 ft | 327 kts | 284° |
| 2026-04-20 19:00 | 18.84335 | -98.99638 | 14518 ft | 319 kts | 283° |
| 2026-04-20 19:00 | 18.84748 | -99.01907 | 14392 ft | 311 kts | 282° |
| 2026-04-20 19:00 | 18.85132 | -99.04113 | 14275 ft | 304 kts | 282° |
| 2026-04-20 19:01 | 18.85510 | -99.06298 | 14157 ft | 297 kts | 282° |
| 2026-04-20 19:01 | 18.85876 | -99.08405 | 14045 ft | 290 kts | 282° |
| 2026-04-20 19:01 | 18.86238 | -99.10479 | 13921 ft | 284 kts | 282° |
| 2026-04-20 19:01 | 18.86585 | -99.12472 | 13901 ft | 274 kts | 283° |
| 2026-04-20 19:02 | 18.87042 | -99.14446 | 13902 ft | 272 kts | 292° |
| 2026-04-20 19:02 | 18.87829 | -99.16206 | 13894 ft | 259 kts | 304° |
| 2026-04-20 19:02 | 18.88820 | -99.17723 | 13900 ft | 247 kts | 308° |
| 2026-04-20 19:02 | 18.89839 | -99.19172 | 13909 ft | 242 kts | 309° |
| 2026-04-20 19:03 | 18.90833 | -99.20577 | 13912 ft | 235 kts | 309° |
| 2026-04-20 19:03 | 18.91779 | -99.21925 | 13903 ft | 226 kts | 309° |
| 2026-04-20 19:03 | 18.92714 | -99.23254 | 13897 ft | 222 kts | 314° |
| 2026-04-20 19:03 | 18.93869 | -99.24294 | 13908 ft | 218 kts | 334° |
| 2026-04-20 19:04 | 18.95277 | -99.24845 | 13935 ft | 216 kts | 353° |
| 2026-04-20 19:04 | 18.96773 | -99.24878 | 13951 ft | 214 kts | 11° |
| 2026-04-20 19:04 | 18.98195 | -99.24397 | 13966 ft | 214 kts | 29° |
| 2026-04-20 19:04 | 18.99391 | -99.23453 | 13984 ft | 214 kts | 46° |
| 2026-04-20 19:05 | 19.00381 | -99.22299 | 13996 ft | 215 kts | 48° |
| 2026-04-20 19:05 | 19.01367 | -99.21095 | 13997 ft | 214 kts | 48° |
| 2026-04-20 19:05 | 19.02348 | -99.19895 | 13993 ft | 214 kts | 48° |
| 2026-04-20 19:05 | 19.03320 | -99.18713 | 13993 ft | 215 kts | 48° |
| 2026-04-20 19:06 | 19.04301 | -99.17522 | 13999 ft | 215 kts | 47° |
| 2026-04-20 19:06 | 19.05292 | -99.16322 | 13998 ft | 216 kts | 47° |
| 2026-04-20 19:06 | 19.06278 | -99.15130 | 14001 ft | 216 kts | 48° |
| 2026-04-20 19:06 | 19.07270 | -99.13930 | 14013 ft | 216 kts | 47° |
| 2026-04-20 19:07 | 19.08253 | -99.12740 | 14024 ft | 216 kts | 47° |
| 2026-04-20 19:07 | 19.09243 | -99.11544 | 14023 ft | 216 kts | 47° |
| 2026-04-20 19:07 | 19.10240 | -99.10338 | 14032 ft | 215 kts | 48° |
| 2026-04-20 19:07 | 19.11228 | -99.09143 | 14033 ft | 215 kts | 47° |
| 2026-04-20 19:08 | 19.12209 | -99.07956 | 14032 ft | 214 kts | 48° |
| 2026-04-20 19:08 | 19.14177 | -99.05575 | 14037 ft | 214 kts | 47° |
| 2026-04-20 19:08 | 19.15155 | -99.04392 | 14037 ft | 215 kts | 47° |
| 2026-04-20 19:09 | 19.16172 | -99.03234 | 14032 ft | 214 kts | 34° |
| 2026-04-20 19:09 | 19.17519 | -99.02598 | 13966 ft | 214 kts | 6° |
| 2026-04-20 19:09 | 19.18992 | -99.02739 | 13908 ft | 215 kts | 339° |
| 2026-04-20 19:09 | 19.20273 | -99.03595 | 13718 ft | 221 kts | 320° |
| 2026-04-20 19:10 | 19.21373 | -99.04689 | 13547 ft | 218 kts | 318° |
| 2026-04-20 19:10 | 19.22463 | -99.05801 | 13337 ft | 217 kts | 319° |
| 2026-04-20 19:10 | 19.23554 | -99.06911 | 13128 ft | 216 kts | 317° |
| 2026-04-20 19:10 | 19.24569 | -99.08072 | 12919 ft | 217 kts | 312° |
| 2026-04-20 19:11 | 19.25513 | -99.09345 | 12695 ft | 217 kts | 309° |
| 2026-04-20 19:11 | 19.26424 | -99.10613 | 12471 ft | 217 kts | 309° |
| 2026-04-20 19:11 | 19.27345 | -99.11892 | 11975 ft | 226 kts | 309° |
| 2026-04-20 19:11 | 19.28310 | -99.13228 | 11445 ft | 232 kts | 309° |
| 2026-04-20 19:12 | 19.29305 | -99.14605 | 10976 ft | 233 kts | 308° |
| 2026-04-20 19:12 | 19.30286 | -99.15965 | 10547 ft | 233 kts | 308° |
| 2026-04-20 19:12 | 19.31248 | -99.17298 | 10232 ft | 226 kts | 307° |
| 2026-04-20 19:12 | 19.32258 | -99.18524 | 9927 ft | 213 kts | 321° |
| 2026-04-20 19:13 | 19.33511 | -99.19235 | 9632 ft | 201 kts | 342° |
| 2026-04-20 19:13 | 19.34909 | -99.19395 | 9174 ft | 202 kts | 5° |
| 2026-04-20 19:13 | 19.36215 | -99.19000 | 8955 ft | 189 kts | 27° |
| 2026-04-20 19:13 | 19.37257 | -99.18183 | 8951 ft | 186 kts | 47° |
| 2026-04-20 19:14 | 19.38023 | -99.17072 | 8954 ft | 187 kts | 58° |
| 2026-04-20 19:14 | 19.38658 | -99.15874 | 8928 ft | 188 kts | 60° |
| 2026-04-20 19:14 | 19.39291 | -99.14669 | 8708 ft | 183 kts | 59° |
| 2026-04-20 19:14 | 19.39915 | -99.13543 | 8470 ft | 175 kts | 59° |
| 2026-04-20 19:15 | 19.40526 | -99.12463 | 8251 ft | 167 kts | 58° |
| 2026-04-20 19:15 | 19.41105 | -99.11432 | 8035 ft | 160 kts | 59° |
| 2026-04-20 19:15 | 19.41659 | -99.10435 | 7808 ft | 154 kts | 58° |
| 2026-04-20 19:15 | 19.42238 | -99.09413 | 7613 ft | 176 kts | 59° |
| 2026-04-20 19:16 | 19.42892 | -99.08240 | 7371 ft | 188 kts | 59° |
| 2026-04-20 19:16 | 19.43527 | -99.07104 | 7348 ft | 169 kts | 56° |
| 2026-04-20 19:16 | 19.43936 | -99.06376 | 7341 ft | 54 kts | 57° |
| 2026-04-20 19:16 | 19.43984 | -99.06298 | 7340 ft | 0 kts | 48° |
| 2026-04-20 19:17 | 19.43994 | -99.06291 | 7340 ft | 3 kts | 31° |
| 2026-04-20 19:17 | 19.44019 | -99.06276 | 7340 ft | 4 kts | 30° |
| 2026-04-20 19:17 | 19.44051 | -99.06256 | 7340 ft | 6 kts | 30° |
| 2026-04-20 19:17 | 19.44093 | -99.06232 | 7341 ft | 7 kts | 29° |
| 2026-04-20 19:18 | 19.44150 | -99.06201 | 7340 ft | 10 kts | 22° |
| 2026-04-20 19:18 | 19.44226 | -99.06177 | 7340 ft | 11 kts | 10° |
| 2026-04-20 19:18 | 19.44306 | -99.06168 | 7342 ft | 11 kts | 2° |
| 2026-04-20 19:18 | 19.44376 | -99.06199 | 7343 ft | 11 kts | 309° |
| 2026-04-20 19:19 | 19.44417 | -99.06274 | 7344 ft | 12 kts | 294° |
| 2026-04-20 19:19 | 19.44451 | -99.06357 | 7345 ft | 11 kts | 285° |
| 2026-04-20 19:19 | 19.44437 | -99.06441 | 7346 ft | 11 kts | 248° |
| 2026-04-20 19:19 | 19.44397 | -99.06518 | 7347 ft | 12 kts | 239° |
| 2026-04-20 19:20 | 19.44352 | -99.06597 | 7348 ft | 12 kts | 240° |
| 2026-04-20 19:20 | 19.44306 | -99.06680 | 7350 ft | 12 kts | 239° |
| 2026-04-20 19:20 | 19.44263 | -99.06755 | 7352 ft | 11 kts | 239° |
| 2026-04-20 19:20 | 19.44226 | -99.06822 | 7355 ft | 10 kts | 240° |
| 2026-04-20 19:21 | 19.44187 | -99.06894 | 7356 ft | 12 kts | 240° |
| 2026-04-20 19:21 | 19.44139 | -99.06981 | 7358 ft | 15 kts | 239° |
| 2026-04-20 19:21 | 19.44077 | -99.07091 | 7356 ft | 19 kts | 239° |
| 2026-04-20 19:21 | 19.44004 | -99.07221 | 7355 ft | 22 kts | 239° |
| 2026-04-20 19:22 | 19.43920 | -99.07375 | 7352 ft | 24 kts | 239° |
| 2026-04-20 19:22 | 19.43836 | -99.07525 | 7350 ft | 19 kts | 239° |
| 2026-04-20 19:22 | 19.43796 | -99.07611 | 7350 ft | 10 kts | 265° |
| 2026-04-20 19:22 | 19.43803 | -99.07687 | 7351 ft | 9 kts | 279° |
| 2026-04-20 19:23 | 19.43807 | -99.07713 | 7352 ft | 0 kts | 280° |
| 2026-04-20 19:23 | 19.43808 | -99.07714 | 7352 ft | 0 kts | 280° |
| 2026-04-20 19:23 | 19.43808 | -99.07719 | 7352 ft | 2 kts | 279° |
| 2026-04-20 19:23 | 19.43811 | -99.07736 | 7352 ft | 1 kts | 279° |